sensor_id;sensor_type;location;lat;lon;timestamp;P1;durP1;ratioP1;P2;durP2;ratioP2
84864;SDS011;75122;41.650;25.368;2024-03-23T00:52:11;3.67;;;2.38;;
84864;SDS011;75122;41.650;25.368;2024-03-23T00:54:37;3.90;;;2.38;;
84864;SDS011;75122;41.650;25.368;2024-03-23T00:57:02;3.97;;;2.17;;
84864;SDS011;75122;41.650;25.368;2024-03-23T00:59:28;7.22;;;2.25;;
84864;SDS011;75122;41.650;25.368;2024-03-23T01:01:54;3.50;;;1.95;;
84864;SDS011;75122;41.650;25.368;2024-03-23T01:04:20;4.32;;;2.55;;
84864;SDS011;75122;41.650;25.368;2024-03-23T01:06:45;4.25;;;1.90;;
84864;SDS011;75122;41.650;25.368;2024-03-23T01:09:10;4.45;;;2.10;;
84864;SDS011;75122;41.650;25.368;2024-03-23T01:11:36;6.15;;;3.22;;
84864;SDS011;75122;41.650;25.368;2024-03-23T01:14:02;8.70;;;3.85;;
84864;SDS011;75122;41.650;25.368;2024-03-23T01:16:28;5.47;;;3.55;;
84864;SDS011;75122;41.650;25.368;2024-03-23T01:18:53;5.30;;;3.05;;
84864;SDS011;75122;41.650;25.368;2024-03-23T01:21:19;5.90;;;3.03;;
84864;SDS011;75122;41.650;25.368;2024-03-23T01:23:44;8.88;;;4.15;;
84864;SDS011;75122;41.650;25.368;2024-03-23T01:26:10;8.60;;;4.05;;
84864;SDS011;75122;41.650;25.368;2024-03-23T01:28:35;10.20;;;3.63;;
84864;SDS011;75122;41.650;25.368;2024-03-23T01:31:01;10.35;;;3.60;;
84864;SDS011;75122;41.650;25.368;2024-03-23T01:33:27;11.35;;;4.45;;
84864;SDS011;75122;41.650;25.368;2024-03-23T01:35:52;9.82;;;3.60;;
84864;SDS011;75122;41.650;25.368;2024-03-23T01:38:18;6.82;;;3.40;;
84864;SDS011;75122;41.650;25.368;2024-03-23T01:40:43;13.43;;;4.05;;
84864;SDS011;75122;41.650;25.368;2024-03-23T01:43:08;8.65;;;3.20;;
84864;SDS011;75122;41.650;25.368;2024-03-23T01:45:34;10.60;;;3.88;;
84864;SDS011;75122;41.650;25.368;2024-03-23T01:48:00;10.40;;;3.65;;
84864;SDS011;75122;41.650;25.368;2024-03-23T01:50:27;7.93;;;3.60;;
84864;SDS011;75122;41.650;25.368;2024-03-23T01:52:53;9.00;;;3.45;;
84864;SDS011;75122;41.650;25.368;2024-03-23T01:55:19;6.78;;;3.60;;
84864;SDS011;75122;41.650;25.368;2024-03-23T01:57:44;4.57;;;2.67;;
84864;SDS011;75122;41.650;25.368;2024-03-23T02:00:10;5.60;;;2.10;;
84864;SDS011;75122;41.650;25.368;2024-03-23T02:02:46;4.00;;;1.52;;
84864;SDS011;75122;41.650;25.368;2024-03-23T02:05:12;2.67;;;1.70;;
84864;SDS011;75122;41.650;25.368;2024-03-23T02:07:41;3.20;;;1.73;;
84864;SDS011;75122;41.650;25.368;2024-03-23T02:10:08;6.32;;;2.50;;
84864;SDS011;75122;41.650;25.368;2024-03-23T02:12:40;8.38;;;3.50;;
84864;SDS011;75122;41.650;25.368;2024-03-23T02:15:06;12.52;;;5.07;;
84864;SDS011;75122;41.650;25.368;2024-03-23T02:17:33;12.55;;;5.20;;
84864;SDS011;75122;41.650;25.368;2024-03-23T02:20:00;13.88;;;4.72;;
84864;SDS011;75122;41.650;25.368;2024-03-23T02:22:38;13.77;;;4.65;;
84864;SDS011;75122;41.650;25.368;2024-03-23T02:25:04;11.75;;;4.65;;
84864;SDS011;75122;41.650;25.368;2024-03-23T02:27:30;14.55;;;5.05;;
84864;SDS011;75122;41.650;25.368;2024-03-23T02:29:56;14.63;;;5.72;;
84864;SDS011;75122;41.650;25.368;2024-03-23T02:32:22;13.85;;;5.47;;
84864;SDS011;75122;41.650;25.368;2024-03-23T02:34:47;12.23;;;5.82;;
84864;SDS011;75122;41.650;25.368;2024-03-23T02:37:13;13.30;;;5.40;;
84864;SDS011;75122;41.650;25.368;2024-03-23T02:39:38;17.85;;;6.50;;
84864;SDS011;75122;41.650;25.368;2024-03-23T02:42:03;19.25;;;5.93;;
84864;SDS011;75122;41.650;25.368;2024-03-23T02:44:29;13.73;;;6.25;;
84864;SDS011;75122;41.650;25.368;2024-03-23T02:46:54;16.67;;;7.18;;
84864;SDS011;75122;41.650;25.368;2024-03-23T02:49:20;18.70;;;5.57;;
84864;SDS011;75122;41.650;25.368;2024-03-23T02:51:46;17.23;;;5.43;;
84864;SDS011;75122;41.650;25.368;2024-03-23T02:54:13;12.35;;;5.07;;
84864;SDS011;75122;41.650;25.368;2024-03-23T02:56:39;16.75;;;5.07;;
84864;SDS011;75122;41.650;25.368;2024-03-23T02:59:04;21.50;;;3.40;;
84864;SDS011;75122;41.650;25.368;2024-03-23T03:01:29;5.53;;;2.88;;
84864;SDS011;75122;41.650;25.368;2024-03-23T03:03:55;7.90;;;2.53;;
84864;SDS011;75122;41.650;25.368;2024-03-23T03:06:24;6.90;;;2.60;;
84864;SDS011;75122;41.650;25.368;2024-03-23T03:08:50;6.35;;;2.60;;
84864;SDS011;75122;41.650;25.368;2024-03-23T03:11:15;7.88;;;2.83;;
84864;SDS011;75122;41.650;25.368;2024-03-23T03:13:41;10.15;;;2.70;;
84864;SDS011;75122;41.650;25.368;2024-03-23T03:16:10;3.92;;;1.90;;
84864;SDS011;75122;41.650;25.368;2024-03-23T03:18:35;3.05;;;1.80;;
84864;SDS011;75122;41.650;25.368;2024-03-23T03:21:01;3.88;;;1.55;;
84864;SDS011;75122;41.650;25.368;2024-03-23T03:23:30;3.10;;;1.70;;
84864;SDS011;75122;41.650;25.368;2024-03-23T03:25:55;2.30;;;1.65;;
84864;SDS011;75122;41.650;25.368;2024-03-23T03:28:21;3.85;;;1.95;;
84864;SDS011;75122;41.650;25.368;2024-03-23T03:30:46;3.80;;;2.10;;
84864;SDS011;75122;41.650;25.368;2024-03-23T03:33:11;3.67;;;1.77;;
84864;SDS011;75122;41.650;25.368;2024-03-23T03:35:37;4.47;;;2.10;;
84864;SDS011;75122;41.650;25.368;2024-03-23T03:38:02;3.22;;;2.08;;
84864;SDS011;75122;41.650;25.368;2024-03-23T03:40:29;4.10;;;1.77;;
84864;SDS011;75122;41.650;25.368;2024-03-23T03:42:55;3.65;;;1.95;;
84864;SDS011;75122;41.650;25.368;2024-03-23T03:45:20;6.53;;;3.72;;
84864;SDS011;75122;41.650;25.368;2024-03-23T03:47:46;5.45;;;1.67;;
84864;SDS011;75122;41.650;25.368;2024-03-23T03:50:11;4.55;;;2.05;;
84864;SDS011;75122;41.650;25.368;2024-03-23T03:52:37;6.25;;;2.72;;
84864;SDS011;75122;41.650;25.368;2024-03-23T03:55:02;5.60;;;2.55;;
84864;SDS011;75122;41.650;25.368;2024-03-23T03:57:28;4.97;;;2.03;;
84864;SDS011;75122;41.650;25.368;2024-03-23T03:59:54;4.13;;;2.05;;
84864;SDS011;75122;41.650;25.368;2024-03-23T04:02:20;3.78;;;2.30;;
84864;SDS011;75122;41.650;25.368;2024-03-23T04:04:45;6.95;;;3.60;;
84864;SDS011;75122;41.650;25.368;2024-03-23T04:07:10;5.68;;;2.75;;
84864;SDS011;75122;41.650;25.368;2024-03-23T04:09:36;10.38;;;2.92;;
84864;SDS011;75122;41.650;25.368;2024-03-23T04:12:01;4.82;;;2.53;;
84864;SDS011;75122;41.650;25.368;2024-03-23T04:14:27;7.72;;;2.92;;
84864;SDS011;75122;41.650;25.368;2024-03-23T04:16:53;5.70;;;2.17;;
84864;SDS011;75122;41.650;25.368;2024-03-23T04:19:18;6.55;;;2.88;;
84864;SDS011;75122;41.650;25.368;2024-03-23T04:21:43;7.20;;;3.17;;
84864;SDS011;75122;41.650;25.368;2024-03-23T04:24:09;9.20;;;3.78;;
84864;SDS011;75122;41.650;25.368;2024-03-23T04:26:41;7.25;;;3.88;;
84864;SDS011;75122;41.650;25.368;2024-03-23T04:31:32;9.67;;;3.73;;
84864;SDS011;75122;41.650;25.368;2024-03-23T04:33:59;15.23;;;4.40;;
84864;SDS011;75122;41.650;25.368;2024-03-23T04:36:25;6.82;;;3.10;;
84864;SDS011;75122;41.650;25.368;2024-03-23T04:38:50;6.97;;;3.72;;
84864;SDS011;75122;41.650;25.368;2024-03-23T04:41:17;5.63;;;2.88;;
84864;SDS011;75122;41.650;25.368;2024-03-23T04:43:43;8.27;;;4.75;;
84864;SDS011;75122;41.650;25.368;2024-03-23T04:46:08;8.80;;;6.03;;
84864;SDS011;75122;41.650;25.368;2024-03-23T04:48:34;24.75;;;15.38;;
84864;SDS011;75122;41.650;25.368;2024-03-23T04:50:59;12.93;;;9.23;;
84864;SDS011;75122;41.650;25.368;2024-03-23T04:53:25;9.98;;;5.25;;
84864;SDS011;75122;41.650;25.368;2024-03-23T04:55:53;4.82;;;3.40;;
84864;SDS011;75122;41.650;25.368;2024-03-23T04:58:20;7.13;;;3.38;;
84864;SDS011;75122;41.650;25.368;2024-03-23T05:00:46;15.30;;;6.35;;
84864;SDS011;75122;41.650;25.368;2024-03-23T05:03:12;15.02;;;6.50;;
84864;SDS011;75122;41.650;25.368;2024-03-23T05:05:37;6.50;;;3.63;;
84864;SDS011;75122;41.650;25.368;2024-03-23T05:08:02;9.52;;;5.15;;
84864;SDS011;75122;41.650;25.368;2024-03-23T05:10:29;12.23;;;5.60;;
84864;SDS011;75122;41.650;25.368;2024-03-23T05:12:54;14.27;;;5.80;;
84864;SDS011;75122;41.650;25.368;2024-03-23T05:15:20;12.00;;;4.45;;
84864;SDS011;75122;41.650;25.368;2024-03-23T05:17:45;12.38;;;4.78;;
84864;SDS011;75122;41.650;25.368;2024-03-23T05:20:11;11.43;;;5.35;;
84864;SDS011;75122;41.650;25.368;2024-03-23T05:22:37;8.77;;;3.80;;
84864;SDS011;75122;41.650;25.368;2024-03-23T05:25:03;9.57;;;3.90;;
84864;SDS011;75122;41.650;25.368;2024-03-23T05:27:31;6.35;;;3.60;;
84864;SDS011;75122;41.650;25.368;2024-03-23T05:29:58;13.30;;;4.63;;
84864;SDS011;75122;41.650;25.368;2024-03-23T05:32:23;9.50;;;4.50;;
84864;SDS011;75122;41.650;25.368;2024-03-23T05:34:49;7.85;;;3.72;;
84864;SDS011;75122;41.650;25.368;2024-03-23T05:37:20;4.82;;;2.90;;
84864;SDS011;75122;41.650;25.368;2024-03-23T05:39:45;6.07;;;3.22;;
84864;SDS011;75122;41.650;25.368;2024-03-23T05:42:13;5.72;;;3.45;;
84864;SDS011;75122;41.650;25.368;2024-03-23T05:44:39;4.55;;;2.85;;
84864;SDS011;75122;41.650;25.368;2024-03-23T05:47:05;5.68;;;2.75;;
84864;SDS011;75122;41.650;25.368;2024-03-23T05:49:30;3.60;;;2.35;;
84864;SDS011;75122;41.650;25.368;2024-03-23T05:51:56;5.57;;;3.30;;
84864;SDS011;75122;41.650;25.368;2024-03-23T05:54:21;4.65;;;2.55;;
84864;SDS011;75122;41.650;25.368;2024-03-23T05:56:46;5.13;;;2.72;;
84864;SDS011;75122;41.650;25.368;2024-03-23T05:59:12;4.38;;;2.42;;
84864;SDS011;75122;41.650;25.368;2024-03-23T06:01:37;4.10;;;2.20;;
84864;SDS011;75122;41.650;25.368;2024-03-23T06:04:04;6.43;;;3.17;;
84864;SDS011;75122;41.650;25.368;2024-03-23T06:06:29;6.97;;;3.30;;
84864;SDS011;75122;41.650;25.368;2024-03-23T06:08:55;5.07;;;3.17;;
84864;SDS011;75122;41.650;25.368;2024-03-23T06:11:20;5.03;;;3.00;;
84864;SDS011;75122;41.650;25.368;2024-03-23T06:13:46;6.35;;;2.80;;
84864;SDS011;75122;41.650;25.368;2024-03-23T06:16:11;6.53;;;3.28;;
84864;SDS011;75122;41.650;25.368;2024-03-23T06:18:37;6.82;;;3.08;;
84864;SDS011;75122;41.650;25.368;2024-03-23T06:21:02;8.60;;;3.40;;
84864;SDS011;75122;41.650;25.368;2024-03-23T06:23:28;6.50;;;3.50;;
84864;SDS011;75122;41.650;25.368;2024-03-23T06:25:53;7.75;;;3.60;;
84864;SDS011;75122;41.650;25.368;2024-03-23T06:28:19;8.43;;;3.90;;
84864;SDS011;75122;41.650;25.368;2024-03-23T06:30:45;5.13;;;3.05;;
84864;SDS011;75122;41.650;25.368;2024-03-23T06:33:11;6.93;;;3.50;;
84864;SDS011;75122;41.650;25.368;2024-03-23T06:35:36;8.75;;;3.22;;
84864;SDS011;75122;41.650;25.368;2024-03-23T06:38:02;6.80;;;3.10;;
84864;SDS011;75122;41.650;25.368;2024-03-23T06:40:27;4.35;;;2.60;;
84864;SDS011;75122;41.650;25.368;2024-03-23T06:42:53;7.57;;;3.08;;
84864;SDS011;75122;41.650;25.368;2024-03-23T06:45:18;5.45;;;3.30;;
84864;SDS011;75122;41.650;25.368;2024-03-23T06:47:48;7.63;;;3.70;;
84864;SDS011;75122;41.650;25.368;2024-03-23T06:50:14;8.95;;;3.58;;
84864;SDS011;75122;41.650;25.368;2024-03-23T06:52:39;5.68;;;3.78;;
84864;SDS011;75122;41.650;25.368;2024-03-23T06:55:05;6.45;;;4.25;;
84864;SDS011;75122;41.650;25.368;2024-03-23T06:57:30;7.45;;;3.83;;
84864;SDS011;75122;41.650;25.368;2024-03-23T06:59:56;10.30;;;4.10;;
84864;SDS011;75122;41.650;25.368;2024-03-23T07:02:21;5.38;;;3.35;;
84864;SDS011;75122;41.650;25.368;2024-03-23T07:04:46;11.50;;;4.47;;
84864;SDS011;75122;41.650;25.368;2024-03-23T07:07:12;7.28;;;3.65;;
84864;SDS011;75122;41.650;25.368;2024-03-23T07:09:37;10.50;;;3.55;;
84864;SDS011;75122;41.650;25.368;2024-03-23T07:12:03;7.28;;;3.75;;
84864;SDS011;75122;41.650;25.368;2024-03-23T07:14:29;4.93;;;3.05;;
84864;SDS011;75122;41.650;25.368;2024-03-23T07:16:55;5.75;;;3.22;;
84864;SDS011;75122;41.650;25.368;2024-03-23T07:19:20;5.68;;;3.60;;
84864;SDS011;75122;41.650;25.368;2024-03-23T07:21:45;7.82;;;3.58;;
84864;SDS011;75122;41.650;25.368;2024-03-23T07:24:12;6.10;;;3.63;;
84864;SDS011;75122;41.650;25.368;2024-03-23T07:26:38;9.95;;;3.85;;
84864;SDS011;75122;41.650;25.368;2024-03-23T07:29:04;4.32;;;3.17;;
84864;SDS011;75122;41.650;25.368;2024-03-23T07:31:30;5.72;;;3.42;;
84864;SDS011;75122;41.650;25.368;2024-03-23T07:33:56;6.00;;;3.22;;
84864;SDS011;75122;41.650;25.368;2024-03-23T07:36:21;4.20;;;2.70;;
84864;SDS011;75122;41.650;25.368;2024-03-23T07:38:46;5.28;;;2.80;;
84864;SDS011;75122;41.650;25.368;2024-03-23T07:41:15;4.50;;;2.50;;
84864;SDS011;75122;41.650;25.368;2024-03-23T07:43:42;5.93;;;2.63;;
84864;SDS011;75122;41.650;25.368;2024-03-23T07:46:08;4.15;;;2.35;;
84864;SDS011;75122;41.650;25.368;2024-03-23T07:48:34;6.40;;;2.75;;
84864;SDS011;75122;41.650;25.368;2024-03-23T07:53:29;4.10;;;2.35;;
84864;SDS011;75122;41.650;25.368;2024-03-23T07:55:57;3.83;;;2.05;;
84864;SDS011;75122;41.650;25.368;2024-03-23T07:58:24;4.35;;;1.90;;
84864;SDS011;75122;41.650;25.368;2024-03-23T08:00:50;5.28;;;2.47;;
84864;SDS011;75122;41.650;25.368;2024-03-23T08:03:15;4.20;;;2.65;;
84864;SDS011;75122;41.650;25.368;2024-03-23T08:05:41;5.35;;;2.22;;
84864;SDS011;75122;41.650;25.368;2024-03-23T08:08:06;4.22;;;2.75;;
84864;SDS011;75122;41.650;25.368;2024-03-23T08:10:32;5.70;;;2.20;;
84864;SDS011;75122;41.650;25.368;2024-03-23T08:12:57;5.85;;;2.20;;
84864;SDS011;75122;41.650;25.368;2024-03-23T08:15:23;4.57;;;2.83;;
84864;SDS011;75122;41.650;25.368;2024-03-23T08:17:49;7.70;;;2.67;;
84864;SDS011;75122;41.650;25.368;2024-03-23T08:20:15;6.43;;;2.33;;
84864;SDS011;75122;41.650;25.368;2024-03-23T08:22:40;6.72;;;2.53;;
84864;SDS011;75122;41.650;25.368;2024-03-23T08:25:06;3.38;;;2.20;;
84864;SDS011;75122;41.650;25.368;2024-03-23T08:27:31;4.05;;;2.40;;
84864;SDS011;75122;41.650;25.368;2024-03-23T08:29:58;3.17;;;2.28;;
84864;SDS011;75122;41.650;25.368;2024-03-23T08:32:23;6.55;;;2.58;;
84864;SDS011;75122;41.650;25.368;2024-03-23T08:34:48;5.55;;;3.03;;
84864;SDS011;75122;41.650;25.368;2024-03-23T08:37:14;4.18;;;2.28;;
84864;SDS011;75122;41.650;25.368;2024-03-23T08:39:39;5.85;;;2.42;;
84864;SDS011;75122;41.650;25.368;2024-03-23T08:42:06;4.10;;;2.40;;
84864;SDS011;75122;41.650;25.368;2024-03-23T08:44:31;5.00;;;2.65;;
84864;SDS011;75122;41.650;25.368;2024-03-23T08:46:57;2.90;;;2.40;;
84864;SDS011;75122;41.650;25.368;2024-03-23T08:49:22;7.88;;;2.90;;
84864;SDS011;75122;41.650;25.368;2024-03-23T08:51:47;4.65;;;2.17;;
84864;SDS011;75122;41.650;25.368;2024-03-23T08:54:13;3.42;;;1.90;;
84864;SDS011;75122;41.650;25.368;2024-03-23T08:56:38;3.20;;;1.75;;
84864;SDS011;75122;41.650;25.368;2024-03-23T08:59:04;3.42;;;2.22;;
84864;SDS011;75122;41.650;25.368;2024-03-23T09:01:29;4.50;;;2.30;;
84864;SDS011;75122;41.650;25.368;2024-03-23T09:03:55;2.60;;;2.08;;
84864;SDS011;75122;41.650;25.368;2024-03-23T09:06:20;4.82;;;2.17;;
84864;SDS011;75122;41.650;25.368;2024-03-23T09:08:46;3.47;;;1.88;;
84864;SDS011;75122;41.650;25.368;2024-03-23T09:11:12;9.27;;;2.90;;
84864;SDS011;75122;41.650;25.368;2024-03-23T09:13:38;5.30;;;2.42;;
84864;SDS011;75122;41.650;25.368;2024-03-23T09:16:04;8.77;;;3.95;;
84864;SDS011;75122;41.650;25.368;2024-03-23T09:18:34;5.10;;;3.28;;
84864;SDS011;75122;41.650;25.368;2024-03-23T09:21:01;7.43;;;3.35;;
84864;SDS011;75122;41.650;25.368;2024-03-23T09:23:29;7.85;;;2.60;;
84864;SDS011;75122;41.650;25.368;2024-03-23T09:25:55;8.07;;;2.80;;
84864;SDS011;75122;41.650;25.368;2024-03-23T09:28:20;5.97;;;2.67;;
84864;SDS011;75122;41.650;25.368;2024-03-23T09:30:47;2.85;;;2.40;;
84864;SDS011;75122;41.650;25.368;2024-03-23T09:33:13;3.17;;;2.53;;
84864;SDS011;75122;41.650;25.368;2024-03-23T09:35:42;2.88;;;1.88;;
84864;SDS011;75122;41.650;25.368;2024-03-23T09:38:09;3.42;;;2.15;;
84864;SDS011;75122;41.650;25.368;2024-03-23T09:40:40;6.57;;;2.10;;
84864;SDS011;75122;41.650;25.368;2024-03-23T09:43:07;4.50;;;2.17;;
84864;SDS011;75122;41.650;25.368;2024-03-23T09:45:34;3.15;;;2.17;;
84864;SDS011;75122;41.650;25.368;2024-03-23T09:48:03;4.07;;;2.50;;
84864;SDS011;75122;41.650;25.368;2024-03-23T09:50:29;3.65;;;2.30;;
84864;SDS011;75122;41.650;25.368;2024-03-23T09:52:54;4.40;;;2.08;;
84864;SDS011;75122;41.650;25.368;2024-03-23T09:55:20;3.95;;;2.10;;
84864;SDS011;75122;41.650;25.368;2024-03-23T09:57:45;4.05;;;1.92;;
84864;SDS011;75122;41.650;25.368;2024-03-23T10:00:11;4.25;;;2.15;;
84864;SDS011;75122;41.650;25.368;2024-03-23T10:02:37;4.00;;;2.45;;
84864;SDS011;75122;41.650;25.368;2024-03-23T10:05:02;4.82;;;2.33;;
84864;SDS011;75122;41.650;25.368;2024-03-23T10:07:29;4.15;;;2.63;;
84864;SDS011;75122;41.650;25.368;2024-03-23T10:09:54;3.13;;;1.50;;
84864;SDS011;75122;41.650;25.368;2024-03-23T10:12:20;3.53;;;2.28;;
84864;SDS011;75122;41.650;25.368;2024-03-23T10:14:46;4.00;;;2.47;;
84864;SDS011;75122;41.650;25.368;2024-03-23T10:17:12;3.30;;;2.47;;
84864;SDS011;75122;41.650;25.368;2024-03-23T10:19:47;2.47;;;2.08;;
84864;SDS011;75122;41.650;25.368;2024-03-23T10:22:20;8.02;;;2.80;;
84864;SDS011;75122;41.650;25.368;2024-03-23T10:24:47;4.15;;;1.95;;
84864;SDS011;75122;41.650;25.368;2024-03-23T10:27:20;3.08;;;2.17;;
84864;SDS011;75122;41.650;25.368;2024-03-23T10:29:46;3.72;;;1.90;;
84864;SDS011;75122;41.650;25.368;2024-03-23T10:32:13;2.75;;;1.70;;
84864;SDS011;75122;41.650;25.368;2024-03-23T10:34:40;2.60;;;1.77;;
84864;SDS011;75122;41.650;25.368;2024-03-23T10:37:06;3.40;;;1.98;;
84864;SDS011;75122;41.650;25.368;2024-03-23T10:39:32;2.20;;;1.45;;
84864;SDS011;75122;41.650;25.368;2024-03-23T10:42:02;3.15;;;1.85;;
84864;SDS011;75122;41.650;25.368;2024-03-23T10:44:29;3.00;;;1.75;;
84864;SDS011;75122;41.650;25.368;2024-03-23T10:46:55;2.40;;;2.17;;
84864;SDS011;75122;41.650;25.368;2024-03-23T10:49:31;3.05;;;1.75;;
84864;SDS011;75122;41.650;25.368;2024-03-23T10:52:01;3.30;;;1.67;;
84864;SDS011;75122;41.650;25.368;2024-03-23T10:54:27;4.35;;;1.90;;
84864;SDS011;75122;41.650;25.368;2024-03-23T10:59:34;2.67;;;1.77;;
84864;SDS011;75122;41.650;25.368;2024-03-23T11:02:02;2.85;;;1.70;;
84864;SDS011;75122;41.650;25.368;2024-03-23T11:04:47;6.60;;;2.35;;
84864;SDS011;75122;41.650;25.368;2024-03-23T11:09:53;2.83;;;1.60;;
84864;SDS011;75122;41.650;25.368;2024-03-23T11:14:51;2.03;;;1.75;;
84864;SDS011;75122;41.650;25.368;2024-03-23T11:17:25;2.55;;;1.80;;
84864;SDS011;75122;41.650;25.368;2024-03-23T11:20:01;2.35;;;1.80;;
84864;SDS011;75122;41.650;25.368;2024-03-23T11:22:49;2.47;;;1.90;;
84864;SDS011;75122;41.650;25.368;2024-03-23T11:27:43;2.80;;;1.52;;
84864;SDS011;75122;41.650;25.368;2024-03-23T11:30:17;2.60;;;1.70;;
84864;SDS011;75122;41.650;25.368;2024-03-23T11:32:43;3.80;;;1.90;;
84864;SDS011;75122;41.650;25.368;2024-03-23T11:35:10;2.53;;;1.65;;
84864;SDS011;75122;41.650;25.368;2024-03-23T11:38:00;3.15;;;1.67;;
84864;SDS011;75122;41.650;25.368;2024-03-23T11:40:38;2.63;;;1.63;;
84864;SDS011;75122;41.650;25.368;2024-03-23T11:43:13;4.70;;;2.35;;
84864;SDS011;75122;41.650;25.368;2024-03-23T11:45:46;5.22;;;2.13;;
84864;SDS011;75122;41.650;25.368;2024-03-23T11:48:17;4.55;;;2.38;;
84864;SDS011;75122;41.650;25.368;2024-03-23T11:50:44;2.85;;;1.73;;
84864;SDS011;75122;41.650;25.368;2024-03-23T11:55:43;3.35;;;2.65;;
84864;SDS011;75122;41.650;25.368;2024-03-23T11:58:12;2.83;;;1.75;;
84864;SDS011;75122;41.650;25.368;2024-03-23T12:00:39;2.67;;;1.63;;
84864;SDS011;75122;41.650;25.368;2024-03-23T12:03:05;3.47;;;1.90;;
84864;SDS011;75122;41.650;25.368;2024-03-23T12:05:34;3.53;;;2.10;;
84864;SDS011;75122;41.650;25.368;2024-03-23T12:10:49;2.80;;;1.70;;
84864;SDS011;75122;41.650;25.368;2024-03-23T12:13:29;2.47;;;1.70;;
84864;SDS011;75122;41.650;25.368;2024-03-23T12:15:54;2.70;;;1.70;;
84864;SDS011;75122;41.650;25.368;2024-03-23T12:18:23;2.95;;;1.63;;
84864;SDS011;75122;41.650;25.368;2024-03-23T12:20:49;2.80;;;1.92;;
84864;SDS011;75122;41.650;25.368;2024-03-23T12:23:15;3.15;;;1.83;;
84864;SDS011;75122;41.650;25.368;2024-03-23T12:25:40;3.20;;;1.70;;
84864;SDS011;75122;41.650;25.368;2024-03-23T12:28:06;2.17;;;1.85;;
84864;SDS011;75122;41.650;25.368;2024-03-23T12:30:35;2.42;;;1.33;;
84864;SDS011;75122;41.650;25.368;2024-03-23T12:33:04;2.47;;;1.70;;
84864;SDS011;75122;41.650;25.368;2024-03-23T12:35:29;4.15;;;1.50;;
84864;SDS011;75122;41.650;25.368;2024-03-23T12:37:55;2.53;;;1.52;;
84864;SDS011;75122;41.650;25.368;2024-03-23T12:40:21;2.78;;;1.63;;
84864;SDS011;75122;41.650;25.368;2024-03-23T12:42:46;2.13;;;1.58;;
84864;SDS011;75122;41.650;25.368;2024-03-23T12:45:11;2.53;;;1.50;;
84864;SDS011;75122;41.650;25.368;2024-03-23T12:47:37;1.80;;;1.27;;
84864;SDS011;75122;41.650;25.368;2024-03-23T12:50:02;3.80;;;1.45;;
84864;SDS011;75122;41.650;25.368;2024-03-23T12:52:28;4.07;;;1.75;;
84864;SDS011;75122;41.650;25.368;2024-03-23T12:54:57;3.28;;;1.77;;
84864;SDS011;75122;41.650;25.368;2024-03-23T12:57:23;3.60;;;1.45;;
84864;SDS011;75122;41.650;25.368;2024-03-23T12:59:49;2.15;;;1.58;;
84864;SDS011;75122;41.650;25.368;2024-03-23T13:02:17;3.28;;;1.63;;
84864;SDS011;75122;41.650;25.368;2024-03-23T13:04:43;1.98;;;1.30;;
84864;SDS011;75122;41.650;25.368;2024-03-23T13:07:09;1.67;;;1.05;;
84864;SDS011;75122;41.650;25.368;2024-03-23T13:09:35;2.30;;;1.40;;
84864;SDS011;75122;41.650;25.368;2024-03-23T13:12:00;8.45;;;4.82;;
84864;SDS011;75122;41.650;25.368;2024-03-23T13:14:26;3.03;;;2.35;;
84864;SDS011;75122;41.650;25.368;2024-03-23T13:16:51;2.85;;;1.60;;
84864;SDS011;75122;41.650;25.368;2024-03-23T13:19:17;3.22;;;1.80;;
84864;SDS011;75122;41.650;25.368;2024-03-23T13:21:42;2.30;;;1.40;;
84864;SDS011;75122;41.650;25.368;2024-03-23T13:24:08;5.65;;;2.63;;
84864;SDS011;75122;41.650;25.368;2024-03-23T13:26:34;6.32;;;2.90;;
84864;SDS011;75122;41.650;25.368;2024-03-23T13:28:59;2.67;;;1.90;;
84864;SDS011;75122;41.650;25.368;2024-03-23T13:31:25;3.38;;;1.77;;
84864;SDS011;75122;41.650;25.368;2024-03-23T13:33:50;4.68;;;1.48;;
84864;SDS011;75122;41.650;25.368;2024-03-23T13:36:16;3.03;;;1.52;;
84864;SDS011;75122;41.650;25.368;2024-03-23T13:38:41;3.88;;;1.60;;
84864;SDS011;75122;41.650;25.368;2024-03-23T13:41:07;6.68;;;1.75;;
84864;SDS011;75122;41.650;25.368;2024-03-23T13:43:33;1.67;;;1.40;;
84864;SDS011;75122;41.650;25.368;2024-03-23T13:45:59;3.88;;;1.55;;
84864;SDS011;75122;41.650;25.368;2024-03-23T13:48:25;6.63;;;3.83;;
84864;SDS011;75122;41.650;25.368;2024-03-23T13:50:58;5.20;;;2.90;;
84864;SDS011;75122;41.650;25.368;2024-03-23T13:53:25;2.38;;;1.95;;
84864;SDS011;75122;41.650;25.368;2024-03-23T13:55:50;1.25;;;1.15;;
84864;SDS011;75122;41.650;25.368;2024-03-23T13:58:16;5.35;;;1.70;;
84864;SDS011;75122;41.650;25.368;2024-03-23T14:00:41;4.30;;;1.63;;
84864;SDS011;75122;41.650;25.368;2024-03-23T14:03:10;5.97;;;2.78;;
84864;SDS011;75122;41.650;25.368;2024-03-23T14:05:36;7.47;;;3.45;;
84864;SDS011;75122;41.650;25.368;2024-03-23T14:08:08;3.92;;;1.90;;
84864;SDS011;75122;41.650;25.368;2024-03-23T14:10:34;3.05;;;1.63;;
84864;SDS011;75122;41.650;25.368;2024-03-23T14:13:01;2.80;;;2.42;;
84864;SDS011;75122;41.650;25.368;2024-03-23T14:15:29;2.60;;;1.50;;
84864;SDS011;75122;41.650;25.368;2024-03-23T14:17:55;7.03;;;3.63;;
84864;SDS011;75122;41.650;25.368;2024-03-23T14:20:21;3.63;;;2.30;;
84864;SDS011;75122;41.650;25.368;2024-03-23T14:22:48;2.25;;;1.60;;
84864;SDS011;75122;41.650;25.368;2024-03-23T14:25:13;2.40;;;1.63;;
84864;SDS011;75122;41.650;25.368;2024-03-23T14:27:39;1.92;;;1.20;;
84864;SDS011;75122;41.650;25.368;2024-03-23T14:30:04;3.42;;;1.58;;
84864;SDS011;75122;41.650;25.368;2024-03-23T14:32:31;1.98;;;1.60;;
84864;SDS011;75122;41.650;25.368;2024-03-23T14:35:01;2.72;;;1.63;;
84864;SDS011;75122;41.650;25.368;2024-03-23T14:37:28;3.42;;;1.85;;
84864;SDS011;75122;41.650;25.368;2024-03-23T14:39:57;3.00;;;2.00;;
84864;SDS011;75122;41.650;25.368;2024-03-23T14:42:23;4.22;;;2.40;;
84864;SDS011;75122;41.650;25.368;2024-03-23T14:44:51;3.55;;;2.15;;
84864;SDS011;75122;41.650;25.368;2024-03-23T14:47:18;2.72;;;2.30;;
84864;SDS011;75122;41.650;25.368;2024-03-23T14:49:44;1.55;;;1.33;;
84864;SDS011;75122;41.650;25.368;2024-03-23T14:52:13;4.32;;;2.10;;
84864;SDS011;75122;41.650;25.368;2024-03-23T14:54:39;2.78;;;1.40;;
84864;SDS011;75122;41.650;25.368;2024-03-23T14:57:05;3.13;;;1.65;;
84864;SDS011;75122;41.650;25.368;2024-03-23T14:59:32;4.18;;;1.80;;
84864;SDS011;75122;41.650;25.368;2024-03-23T15:01:57;2.88;;;1.90;;
84864;SDS011;75122;41.650;25.368;2024-03-23T15:04:23;6.70;;;3.55;;
84864;SDS011;75122;41.650;25.368;2024-03-23T15:06:48;4.57;;;2.55;;
84864;SDS011;75122;41.650;25.368;2024-03-23T15:09:15;3.83;;;1.92;;
84864;SDS011;75122;41.650;25.368;2024-03-23T15:11:40;5.45;;;2.15;;
84864;SDS011;75122;41.650;25.368;2024-03-23T15:14:06;2.28;;;1.48;;
84864;SDS011;75122;41.650;25.368;2024-03-23T15:16:32;6.97;;;1.85;;
84864;SDS011;75122;41.650;25.368;2024-03-23T15:18:58;5.50;;;1.77;;
84864;SDS011;75122;41.650;25.368;2024-03-23T15:21:23;7.63;;;1.83;;
84864;SDS011;75122;41.650;25.368;2024-03-23T15:23:49;4.05;;;2.30;;
84864;SDS011;75122;41.650;25.368;2024-03-23T15:26:14;4.38;;;2.33;;
84864;SDS011;75122;41.650;25.368;2024-03-23T15:28:41;2.20;;;1.75;;
84864;SDS011;75122;41.650;25.368;2024-03-23T15:31:08;2.22;;;1.83;;
84864;SDS011;75122;41.650;25.368;2024-03-23T15:33:34;4.43;;;2.30;;
84864;SDS011;75122;41.650;25.368;2024-03-23T15:36:01;2.33;;;1.80;;
84864;SDS011;75122;41.650;25.368;2024-03-23T15:38:27;3.38;;;1.90;;
84864;SDS011;75122;41.650;25.368;2024-03-23T15:40:54;7.32;;;2.65;;